Time;durP1;ratioP1;P1;durP2;ratioP2;P2;SDS_P1;SDS_P2;PMS_P1;PMS_P2;Temp;Humidity;BMP_temperature;BMP_pressure;BME280_temperature;BME280_humidity;BME280_pressure;Samples;Min_cycle;Max_cycle;Signal;HPM_P1;HPM_P2
2021/10/26 00:02:05;;;;;;;36.30;28.25;;;11.80;99.70;;;;;;5035217;28;20041;-88
2021/10/26 00:04:31;;;;;;;40.38;29.40;;;11.70;99.70;;;;;;5034921;28;20403;-88
2021/10/26 00:06:57;;;;;;;40.15;28.48;;;11.70;99.60;;;;;;5035018;28;20043;-87
2021/10/26 00:09:23;;;;;;;40.50;29.23;;;11.70;99.60;;;;;;5034896;28;20140;-87
2021/10/26 00:11:49;;;;;;;38.22;27.73;;;11.70;99.60;;;;;;5053002;28;20068;-88
2021/10/26 00:14:15;;;;;;;40.17;28.42;;;11.70;99.60;;;;;;5034958;28;20076;-88
2021/10/26 00:16:40;;;;;;;41.55;29.40;;;11.70;99.60;;;;;;5034786;28;20408;-87
2021/10/26 00:19:06;;;;;;;39.85;28.48;;;11.70;99.60;;;;;;5035518;28;20059;-89
2021/10/26 00:21:32;;;;;;;41.50;29.10;;;11.70;99.60;;;;;;5035350;28;20041;-88
2021/10/26 00:23:57;;;;;;;37.78;27.83;;;11.60;99.70;;;;;;5035076;28;20041;-87
2021/10/26 00:26:23;;;;;;;44.95;29.42;;;11.70;99.70;;;;;;5035543;28;20037;-88
2021/10/26 00:28:48;;;;;;;42.08;29.73;;;11.70;99.70;;;;;;5030947;28;20061;-87
2021/10/26 00:31:14;;;;;;;45.65;30.73;;;11.70;99.80;;;;;;5031953;28;20120;-88
2021/10/26 00:33:40;;;;;;;43.17;30.05;;;11.70;99.80;;;;;;5031989;28;20107;-88
2021/10/26 00:36:06;;;;;;;41.83;29.73;;;11.70;99.80;;;;;;5030880;28;20038;-87
2021/10/26 00:38:31;;;;;;;41.33;30.52;;;11.70;99.80;;;;;;5032137;28;20514;-88
2021/10/26 00:40:59;;;;;;;47.50;31.77;;;11.70;99.80;;;;;;5032010;28;20041;-88
2021/10/26 00:43:25;;;;;;;40.08;29.73;;;11.70;99.80;;;;;;5032155;28;20068;-88
2021/10/26 00:45:50;;;;;;;42.63;30.42;;;11.70;99.80;;;;;;5032386;28;20038;-88
2021/10/26 00:48:16;;;;;;;43.55;30.90;;;11.70;99.70;;;;;;5031710;28;20049;-88
2021/10/26 00:50:42;;;;;;;39.58;29.38;;;11.70;99.70;;;;;;5031292;28;20120;-88
2021/10/26 00:53:08;;;;;;;48.70;31.90;;;11.70;99.70;;;;;;5031623;28;20042;-89
2021/10/26 00:55:34;;;;;;;39.83;30.00;;;11.70;99.70;;;;;;5031921;28;20400;-87
2021/10/26 00:58:00;;;;;;;45.70;31.02;;;11.70;99.70;;;;;;5030821;28;20045;-88
2021/10/26 01:00:26;;;;;;;48.05;31.52;;;11.70;99.70;;;;;;5031970;28;20053;-87
2021/10/26 01:02:54;;;;;;;48.95;32.20;;;11.70;99.70;;;;;;5031893;28;20168;-90
2021/10/26 01:05:20;;;;;;;42.67;30.63;;;11.70;99.70;;;;;;5031141;28;20045;-89
2021/10/26 01:07:45;;;;;;;47.85;33.03;;;11.60;99.70;;;;;;5031358;28;20132;-89
2021/10/26 01:10:11;;;;;;;47.45;30.85;;;11.60;99.80;;;;;;5032299;28;20148;-88
2021/10/26 01:12:37;;;;;;;50.22;31.92;;;11.60;99.80;;;;;;5030782;28;20107;-88
2021/10/26 01:15:05;;;;;;;48.97;32.22;;;11.70;99.80;;;;;;5031944;28;20037;-89
2021/10/26 01:17:30;;;;;;;44.47;30.27;;;11.70;99.90;;;;;;5031783;28;20045;-88
2021/10/26 01:19:57;;;;;;;43.88;29.60;;;11.70;99.80;;;;;;5031056;28;20038;-90
2021/10/26 01:22:28;;;;;;;43.00;29.65;;;11.70;99.90;;;;;;5032587;28;20041;-89
2021/10/26 01:24:55;;;;;;;45.50;30.63;;;11.70;99.90;;;;;;5031466;28;20049;-89
2021/10/26 01:27:21;;;;;;;47.83;29.77;;;11.70;99.80;;;;;;5031343;28;20054;-88
2021/10/26 01:29:47;;;;;;;43.22;29.95;;;11.70;99.80;;;;;;5031349;28;20053;-88
2021/10/26 01:32:15;;;;;;;42.47;28.13;;;11.70;99.80;;;;;;5031105;28;20053;-88
2021/10/26 01:34:41;;;;;;;44.90;28.67;;;11.70;99.70;;;;;;5032045;28;20029;-88
2021/10/26 01:37:08;;;;;;;43.17;28.92;;;11.70;99.70;;;;;;5031368;28;20503;-88
2021/10/26 01:39:35;;;;;;;41.65;28.65;;;11.70;99.70;;;;;;5027845;28;20037;-88
2021/10/26 01:42:02;;;;;;;40.85;28.83;;;11.60;99.60;;;;;;5031482;28;20037;-88
2021/10/26 01:44:29;;;;;;;42.55;29.17;;;11.60;99.60;;;;;;5031559;28;20045;-90
2021/10/26 01:46:54;;;;;;;47.20;30.67;;;11.60;99.60;;;;;;5030698;28;20057;-88
2021/10/26 01:49:22;;;;;;;42.88;29.73;;;11.60;99.60;;;;;;5031303;28;20053;-88
2021/10/26 01:51:49;;;;;;;44.30;30.38;;;11.60;99.70;;;;;;5033945;28;20041;-88
2021/10/26 01:54:16;;;;;;;46.40;30.95;;;11.60;99.70;;;;;;5034277;28;20120;-87
2021/10/26 01:56:42;;;;;;;48.15;30.92;;;11.60;99.70;;;;;;5035386;28;20069;-88
2021/10/26 01:59:09;;;;;;;39.88;28.27;;;11.60;99.70;;;;;;5035005;28;20045;-89
2021/10/26 02:01:35;;;;;;;49.00;31.05;;;11.50;99.70;;;;;;5033814;28;20072;-89
2021/10/26 02:04:00;;;;;;;50.17;32.53;;;11.50;99.70;;;;;;5035189;28;20088;-88
2021/10/26 02:06:26;;;;;;;44.95;30.65;;;11.50;99.70;;;;;;5035144;28;20045;-88
2021/10/26 02:08:51;;;;;;;44.67;30.55;;;11.50;99.70;;;;;;5034175;28;20481;-89
2021/10/26 02:11:17;;;;;;;40.50;30.02;;;11.50;99.70;;;;;;5033992;28;20037;-88
2021/10/26 02:13:43;;;;;;;46.67;31.08;;;11.50;99.70;;;;;;5034377;28;20045;-88
2021/10/26 02:16:09;;;;;;;44.20;29.30;;;11.50;99.70;;;;;;5034149;28;20390;-88
2021/10/26 02:18:34;;;;;;;48.83;31.38;;;11.50;99.70;;;;;;5034813;28;20083;-88
2021/10/26 02:21:00;;;;;;;44.92;30.08;;;11.50;99.70;;;;;;5033766;28;22111;-88
2021/10/26 02:23:26;;;;;;;38.90;28.60;;;11.50;99.70;;;;;;5033589;28;20040;-88
2021/10/26 02:25:51;;;;;;;45.22;31.40;;;11.40;99.70;;;;;;5034482;28;20092;-88
2021/10/26 02:28:17;;;;;;;44.60;30.15;;;11.50;99.70;;;;;;5033876;28;20081;-88
2021/10/26 02:30:43;;;;;;;45.10;31.67;;;11.50;99.80;;;;;;5033745;28;20049;-88
2021/10/26 02:33:13;;;;;;;43.53;29.55;;;11.50;99.80;;;;;;5034538;28;20056;-87
2021/10/26 02:35:39;;;;;;;46.03;30.80;;;11.40;99.80;;;;;;5034142;28;20088;-88
2021/10/26 02:38:05;;;;;;;45.45;31.35;;;11.40;99.90;;;;;;5033380;28;20053;-88
2021/10/26 02:40:31;;;;;;;54.65;32.30;;;11.50;99.90;;;;;;5034449;28;20042;-87
2021/10/26 02:42:57;;;;;;;43.65;29.83;;;11.50;99.90;;;;;;5032850;28;20050;-87
2021/10/26 02:45:28;;;;;;;40.63;28.05;;;11.50;99.90;;;;;;5033488;28;20041;-87
2021/10/26 02:47:55;;;;;;;42.08;28.23;;;11.40;99.80;;;;;;5034187;28;20041;-87
2021/10/26 02:50:21;;;;;;;38.20;26.50;;;11.50;99.80;;;;;;5033401;28;20060;-87
2021/10/26 02:52:46;;;;;;;37.10;26.98;;;11.40;99.70;;;;;;5033968;28;20045;-87
2021/10/26 02:55:12;;;;;;;37.95;26.67;;;11.40;99.70;;;;;;5033757;28;20129;-87
2021/10/26 02:57:38;;;;;;;35.13;25.17;;;11.40;99.70;;;;;;5033442;28;20041;-88
2021/10/26 03:00:06;;;;;;;37.40;26.23;;;11.40;99.60;;;;;;5034574;28;20064;-87
2021/10/26 03:02:31;;;;;;;35.55;24.50;;;11.40;99.60;;;;;;5033545;28;20060;-87
2021/10/26 03:04:57;;;;;;;34.58;24.30;;;11.40;99.60;;;;;;5032462;28;20045;-88
2021/10/26 03:07:22;;;;;;;33.60;23.88;;;11.40;99.60;;;;;;5033804;28;20072;-88
2021/10/26 03:09:48;;;;;;;33.50;24.33;;;11.30;99.50;;;;;;5033875;28;20394;-88
2021/10/26 03:12:14;;;;;;;28.15;21.13;;;11.30;99.50;;;;;;5032547;28;20041;-88
2021/10/26 03:14:39;;;;;;;29.73;21.80;;;11.30;99.40;;;;;;5033321;28;20041;-88
2021/10/26 03:17:05;;;;;;;27.20;19.88;;;11.30;99.30;;;;;;5033206;28;20519;-86
2021/10/26 03:19:31;;;;;;;25.48;19.30;;;11.30;99.30;;;;;;5032646;28;20053;-88
2021/10/26 03:21:56;;;;;;;26.85;19.73;;;11.20;99.30;;;;;;5032676;28;20041;-87
2021/10/26 03:24:22;;;;;;;28.38;19.42;;;11.20;99.30;;;;;;5034483;28;20140;-88
2021/10/26 03:26:48;;;;;;;24.13;18.75;;;11.20;99.20;;;;;;5032648;28;20042;-88
2021/10/26 03:29:14;;;;;;;23.65;17.67;;;11.20;99.10;;;;;;5032772;28;20058;-88
2021/10/26 03:31:39;;;;;;;27.48;17.70;;;11.20;99.00;;;;;;5032123;28;20056;-88
2021/10/26 03:34:05;;;;;;;25.52;17.13;;;11.10;99.00;;;;;;5032700;28;20048;-88
2021/10/26 03:36:32;;;;;;;23.98;16.00;;;11.10;99.00;;;;;;5033105;28;20512;-86
2021/10/26 03:38:57;;;;;;;20.80;17.05;;;11.10;99.00;;;;;;5032538;28;20077;-87
2021/10/26 03:41:23;;;;;;;21.75;16.67;;;11.10;98.90;;;;;;5032547;28;20072;-88
2021/10/26 03:43:49;;;;;;;22.48;16.73;;;11.00;98.80;;;;;;5032702;28;20141;-88
2021/10/26 03:46:15;;;;;;;22.27;17.67;;;11.00;98.80;;;;;;5031893;28;20132;-88
2021/10/26 03:48:41;;;;;;;20.95;14.60;;;11.00;98.80;;;;;;5032460;28;20116;-87
2021/10/26 03:51:06;;;;;;;21.15;14.43;;;10.90;98.80;;;;;;5033460;28;20096;-87
2021/10/26 03:53:32;;;;;;;19.02;14.50;;;10.90;98.80;;;;;;5031808;28;20042;-88
2021/10/26 03:55:58;;;;;;;20.80;13.80;;;10.90;98.80;;;;;;5033725;28;20124;-88
2021/10/26 03:58:24;;;;;;;21.20;14.68;;;10.90;98.80;;;;;;5032099;28;20088;-86
2021/10/26 04:00:50;;;;;;;18.90;14.85;;;10.90;98.80;;;;;;5031120;28;20073;-85
2021/10/26 04:03:16;;;;;;;20.48;15.43;;;10.80;98.70;;;;;;5031787;28;20056;-85
2021/10/26 04:05:49;;;;;;;25.65;14.98;;;10.80;98.70;;;;;;5032969;28;20042;-86
2021/10/26 04:08:24;;;;;;;;;;;10.80;98.80;;;;;;5032069;28;20045;-85
2021/10/26 04:10:53;;;;;;;22.67;15.20;;;10.70;98.60;;;;;;5027732;28;19928;-85
2021/10/26 04:13:21;;;;;;;20.98;15.45;;;10.70;98.90;;;;;;5032886;28;20052;-85
2021/10/26 04:15:47;;;;;;;21.15;16.15;;;10.70;98.80;;;;;;5031870;28;20084;-84
2021/10/26 04:18:13;;;;;;;19.35;15.32;;;10.70;98.90;;;;;;5032434;28;20096;-85
2021/10/26 04:20:38;;;;;;;22.73;16.85;;;10.70;98.80;;;;;;5031404;28;20041;-86
2021/10/26 04:23:04;;;;;;;23.25;16.55;;;10.70;98.80;;;;;;5031904;28;20103;-84
2021/10/26 04:25:32;;;;;;;21.42;16.95;;;10.70;98.90;;;;;;5032620;28;20580;-84
2021/10/26 04:27:58;;;;;;;21.45;16.17;;;10.60;98.80;;;;;;5032607;28;20050;-84
2021/10/26 04:30:24;;;;;;;22.45;16.83;;;10.60;98.80;;;;;;5048528;28;20053;-84
2021/10/26 04:32:50;;;;;;;22.70;16.92;;;10.60;98.80;;;;;;5035310;28;20118;-89
2021/10/26 04:35:15;;;;;;;30.90;19.42;;;10.60;98.80;;;;;;5052996;28;20371;-88
2021/10/26 04:37:41;;;;;;;21.48;16.65;;;10.60;98.90;;;;;;5035693;28;20041;-92
2021/10/26 04:40:08;;;;;;;24.67;19.15;;;10.60;98.90;;;;;;5034150;28;20060;-90
2021/10/26 04:42:34;;;;;;;30.38;21.23;;;10.60;98.80;;;;;;5035451;28;20070;-91
2021/10/26 04:45:00;;;;;;;26.17;18.13;;;10.60;99.00;;;;;;5027903;28;20124;-89
2021/10/26 04:47:26;;;;;;;26.95;19.20;;;10.50;98.90;;;;;;5015900;28;20049;-90
2021/10/26 04:49:53;;;;;;;29.75;20.48;;;10.50;98.90;;;;;;5016028;28;20052;-89
2021/10/26 04:52:19;;;;;;;27.23;20.65;;;10.50;98.90;;;;;;5033430;28;20045;-88
2021/10/26 04:54:45;;;;;;;35.80;27.10;;;10.50;99.00;;;;;;5036463;28;20037;-88
2021/10/26 04:57:10;;;;;;;37.63;23.42;;;10.50;99.20;;;;;;5033711;28;20072;-88
2021/10/26 04:59:36;;;;;;;35.13;25.45;;;10.60;99.40;;;;;;5033864;28;20048;-91
2021/10/26 05:02:02;;;;;;;29.88;21.30;;;10.60;99.40;;;;;;5033062;28;20045;-89
2021/10/26 05:04:27;;;;;;;35.80;25.13;;;10.60;99.30;;;;;;5034103;28;20048;-89
2021/10/26 05:06:54;;;;;;;35.13;23.83;;;10.60;99.30;;;;;;5035680;28;20551;-88
2021/10/26 05:09:20;;;;;;;34.15;25.42;;;10.50;99.30;;;;;;5035743;28;20053;-88
2021/10/26 05:11:45;;;;;;;45.95;26.83;;;10.60;99.30;;;;;;5034780;28;20041;-89
2021/10/26 05:14:12;;;;;;;33.88;23.42;;;10.60;99.30;;;;;;5035355;28;20107;-89
2021/10/26 05:16:37;;;;;;;39.30;26.02;;;10.60;99.30;;;;;;5035209;28;20646;-90
2021/10/26 05:19:05;;;;;;;32.75;23.98;;;10.60;99.40;;;;;;5034586;28;20045;-89
2021/10/26 05:21:31;;;;;;;35.70;24.83;;;10.60;99.30;;;;;;5035609;28;20473;-90
2021/10/26 05:23:56;;;;;;;42.55;27.88;;;10.60;99.20;;;;;;5035100;28;20072;-88
2021/10/26 05:26:22;;;;;;;36.78;25.98;;;10.70;99.40;;;;;;5036889;28;20109;-90
2021/10/26 05:28:49;;;;;;;50.28;29.80;;;10.70;99.50;;;;;;5038898;28;20166;-89
2021/10/26 05:31:15;;;;;;;43.40;27.27;;;10.70;99.60;;;;;;5038388;28;20041;-89
2021/10/26 05:33:42;;;;;;;35.50;25.27;;;10.70;99.70;;;;;;5039008;28;20093;-88
2021/10/26 05:36:08;;;;;;;44.10;27.13;;;10.70;99.70;;;;;;5038429;28;20048;-90
2021/10/26 05:38:34;;;;;;;44.50;26.33;;;10.70;99.70;;;;;;5038430;28;20040;-90
2021/10/26 05:41:00;;;;;;;48.95;28.17;;;10.80;99.70;;;;;;5037971;28;20519;-89
2021/10/26 05:43:26;;;;;;;45.08;27.30;;;10.80;99.80;;;;;;5038654;28;20037;-90
2021/10/26 05:45:52;;;;;;;44.88;25.88;;;10.80;99.80;;;;;;5037965;28;20114;-89
2021/10/26 05:48:19;;;;;;;40.33;26.63;;;10.80;99.90;;;;;;5038472;28;20132;-88
2021/10/26 05:50:48;;;;;;;44.13;26.52;;;10.80;99.90;;;;;;5038301;28;20044;-90
2021/10/26 05:53:14;;;;;;;50.33;27.80;;;10.80;99.90;;;;;;5037661;28;20473;-88
2021/10/26 05:55:42;;;;;;;44.08;26.25;;;10.80;99.90;;;;;;5038694;28;20583;-88
2021/10/26 05:58:11;;;;;;;43.55;25.88;;;10.80;99.90;;;;;;5038616;28;20106;-90
2021/10/26 06:00:38;;;;;;;43.83;26.45;;;10.80;99.90;;;;;;5024975;28;20129;-89
2021/10/26 06:03:04;;;;;;;43.75;25.23;;;10.80;99.90;;;;;;5018811;28;20585;-90
2021/10/26 06:05:30;;;;;;;47.15;26.17;;;10.80;99.90;;;;;;5018726;28;20485;-91
2021/10/26 06:07:57;;;;;;;50.50;27.63;;;10.90;99.90;;;;;;5017825;28;20489;-89
2021/10/26 06:10:23;;;;;;;48.88;27.25;;;10.80;99.90;;;;;;5018164;28;20053;-88
2021/10/26 06:12:55;;;;;;;47.50;26.83;;;10.90;99.90;;;;;;5018340;28;20504;-87
2021/10/26 06:15:21;;;;;;;50.37;27.83;;;10.90;99.90;;;;;;5017766;28;20121;-87
2021/10/26 06:17:46;;;;;;;56.90;29.13;;;10.90;99.90;;;;;;5018065;28;20076;-88
2021/10/26 06:20:12;;;;;;;54.17;28.45;;;10.90;99.90;;;;;;5028974;28;20049;-87
2021/10/26 06:22:38;;;;;;;43.25;25.17;;;10.90;99.90;;;;;;5037850;28;20040;-87
2021/10/26 06:25:05;;;;;;;53.28;27.73;;;10.90;99.90;;;;;;5037724;28;20044;-88
2021/10/26 06:27:30;;;;;;;53.55;28.50;;;10.90;99.90;;;;;;5037102;28;20045;-87
2021/10/26 06:29:59;;;;;;;45.20;25.73;;;10.90;99.90;;;;;;5037428;28;20079;-87
2021/10/26 06:32:25;;;;;;;52.70;29.10;;;10.90;99.90;;;;;;5037740;28;20060;-88
2021/10/26 06:34:50;;;;;;;49.58;27.13;;;10.90;99.90;;;;;;5037068;28;20107;-87
2021/10/26 06:37:16;;;;;;;49.53;27.85;;;11.00;99.90;;;;;;5037408;28;20040;-87
2021/10/26 06:39:41;;;;;;;44.10;26.77;;;10.90;99.90;;;;;;5037960;28;20051;-87
2021/10/26 06:42:07;;;;;;;52.03;28.30;;;11.00;99.90;;;;;;5036420;28;20044;-87
2021/10/26 06:44:33;;;;;;;41.42;25.00;;;11.00;99.90;;;;;;5037619;28;20411;-87
2021/10/26 06:46:58;;;;;;;54.83;29.25;;;11.00;99.90;;;;;;5037359;28;20037;-87
2021/10/26 06:49:24;;;;;;;60.55;30.40;;;11.00;99.90;;;;;;5034891;28;20506;-87
2021/10/26 06:51:49;;;;;;;50.42;28.33;;;11.00;99.90;;;;;;5038010;28;20454;-88
2021/10/26 06:54:15;;;;;;;55.75;30.13;;;11.10;99.90;;;;;;5035250;28;20110;-89
2021/10/26 06:56:42;;;;;;;53.13;29.42;;;11.10;99.90;;;;;;5035747;28;20079;-89
2021/10/26 06:59:07;;;;;;;50.42;28.33;;;11.10;99.90;;;;;;5037230;28;20052;-88
2021/10/26 07:01:33;;;;;;;43.72;27.10;;;11.10;99.90;;;;;;5037301;28;20067;-88
2021/10/26 07:03:58;;;;;;;45.42;28.10;;;11.10;99.90;;;;;;5029295;28;20041;-89
2021/10/26 07:06:24;;;;;;;45.28;26.75;;;11.10;99.90;;;;;;5033027;28;20580;-88
2021/10/26 07:08:49;;;;;;;41.97;24.50;;;11.10;99.90;;;;;;5037073;28;20409;-88
2021/10/26 07:11:15;;;;;;;41.35;26.50;;;11.10;99.90;;;;;;5033883;28;20548;-85
2021/10/26 07:13:40;;;;;;;46.60;27.98;;;11.20;99.90;;;;;;5022858;28;20044;-86
2021/10/26 07:16:07;;;;;;;52.28;29.08;;;11.20;99.90;;;;;;5020296;28;20108;-84
2021/10/26 07:18:33;;;;;;;46.90;28.23;;;11.20;99.90;;;;;;5017466;28;20049;-86
2021/10/26 07:20:59;;;;;;;44.00;28.85;;;11.20;99.90;;;;;;5017097;28;20393;-86
2021/10/26 07:23:24;;;;;;;48.58;28.48;;;11.20;99.90;;;;;;5016900;28;20045;-85
2021/10/26 07:25:50;;;;;;;52.85;30.10;;;11.20;99.90;;;;;;5016506;28;20097;-85
2021/10/26 07:28:16;;;;;;;46.75;26.98;;;11.20;99.90;;;;;;5016581;28;20052;-85
2021/10/26 07:30:44;;;;;;;41.22;26.40;;;11.20;99.90;;;;;;5022502;28;20100;-85
2021/10/26 07:33:18;;;;;;;39.47;24.77;;;11.30;99.90;;;;;;5035678;28;20049;-86
2021/10/26 07:35:45;;;;;;;48.60;29.10;;;11.30;99.90;;;;;;5020807;28;20076;-85
2021/10/26 07:38:13;;;;;;;41.00;27.33;;;11.30;99.90;;;;;;5015809;28;20072;-86
2021/10/26 07:40:39;;;;;;;42.47;28.08;;;11.30;99.90;;;;;;5016969;28;20076;-86
2021/10/26 07:43:05;;;;;;;40.00;27.75;;;11.30;99.90;;;;;;5016235;28;20087;-85
2021/10/26 07:45:31;;;;;;;36.67;25.67;;;11.30;99.90;;;;;;5016026;28;20091;-85
2021/10/26 07:47:57;;;;;;;50.90;30.10;;;11.30;99.90;;;;;;5015553;28;20045;-86
2021/10/26 07:50:23;;;;;;;47.45;28.55;;;11.30;99.90;;;;;;5028585;28;20049;-87
2021/10/26 07:52:49;;;;;;;46.92;28.67;;;11.30;99.90;;;;;;5023839;28;20485;-86
2021/10/26 07:55:14;;;;;;;43.58;26.67;;;11.30;99.90;;;;;;5034227;28;20045;-86
2021/10/26 07:57:40;;;;;;;44.03;27.67;;;11.40;99.90;;;;;;5018845;28;20095;-89
2021/10/26 08:00:07;;;;;;;51.30;28.98;;;11.40;99.90;;;;;;5022557;28;20033;-86
2021/10/26 08:02:33;;;;;;;43.08;27.10;;;11.40;99.90;;;;;;5036072;28;20534;-87
2021/10/26 08:04:59;;;;;;;47.47;27.98;;;11.40;99.90;;;;;;5035249;28;20064;-86
2021/10/26 08:07:26;;;;;;;46.05;28.83;;;11.50;99.90;;;;;;5035289;28;20131;-86
2021/10/26 08:09:53;;;;;;;46.80;27.40;;;11.50;99.90;;;;;;5036164;28;20053;-87
2021/10/26 08:12:19;;;;;;;51.35;27.52;;;11.60;99.90;;;;;;5035482;28;20079;-86
2021/10/26 08:14:45;;;;;;;41.75;24.88;;;11.60;99.90;;;;;;5035490;28;20396;-86
2021/10/26 08:17:11;;;;;;;41.95;26.35;;;11.60;99.90;;;;;;5035814;28;20136;-86
2021/10/26 08:19:38;;;;;;;46.22;25.08;;;11.60;99.90;;;;;;5032443;28;20076;-87
2021/10/26 08:22:10;;;;;;;45.83;26.25;;;11.60;99.90;;;;;;5028799;28;20042;-85
2021/10/26 08:24:35;;;;;;;38.55;24.70;;;11.60;99.90;;;;;;5016133;28;20041;-86
2021/10/26 08:27:04;;;;;;;41.67;23.90;;;11.70;99.90;;;;;;5028855;28;20488;-86
2021/10/26 08:30:14;;;;;;;40.80;23.10;;;11.70;99.90;;;;;;5035819;28;20057;-86
2021/10/26 08:37:33;;;;;;;39.28;22.15;;;11.70;99.90;;;;;;5034517;28;20511;-86
2021/10/26 08:39:58;;;;;;;36.28;21.50;;;11.70;99.90;;;;;;5035729;28;20053;-85
2021/10/26 08:42:25;;;;;;;37.45;23.10;;;11.70;99.90;;;;;;5034825;28;20478;-86
2021/10/26 08:44:51;;;;;;;37.45;22.30;;;11.80;99.90;;;;;;5035497;28;20413;-87
2021/10/26 08:47:17;;;;;;;42.00;23.42;;;11.80;99.90;;;;;;5033655;28;20076;-86
2021/10/26 08:49:46;;;;;;;37.85;22.23;;;11.90;99.90;;;;;;5032945;28;20033;-85
2021/10/26 08:52:12;;;;;;;38.50;22.67;;;11.90;99.90;;;;;;5035332;28;20110;-86
2021/10/26 08:54:37;;;;;;;41.95;24.05;;;11.90;99.90;;;;;;5035730;28;20484;-85
2021/10/26 08:57:03;;;;;;;36.92;22.58;;;12.00;99.90;;;;;;5034392;28;20045;-86
2021/10/26 08:59:30;;;;;;;35.20;22.50;;;12.00;99.90;;;;;;5032517;28;20087;-86
2021/10/26 09:01:58;;;;;;;37.70;23.77;;;12.00;99.90;;;;;;5028392;28;20080;-86
2021/10/26 09:04:31;;;;;;;36.70;24.17;;;12.10;99.90;;;;;;5018954;28;20180;-84
2021/10/26 09:07:04;;;;;;;39.77;23.30;;;12.20;99.90;;;;;;5019025;28;20040;-85
2021/10/26 09:09:30;;;;;;;36.25;22.55;;;12.10;99.90;;;;;;5018737;28;20048;-84
2021/10/26 09:17:52;;;;;;;38.08;21.40;;;12.30;99.80;;;;;;5018260;28;20060;-84
2021/10/26 09:20:23;;;;;;;37.08;22.50;;;12.30;99.80;;;;;;5019249;28;20152;-84
2021/10/26 09:22:55;;;;;;;37.40;21.83;;;12.30;99.80;;;;;;5019271;28;20041;-84
2021/10/26 09:25:34;;;;;;;39.00;20.55;;;12.40;99.70;;;;;;5018701;28;20045;-86
2021/10/26 09:28:17;;;;;;;35.17;20.20;;;12.40;99.60;;;;;;5018925;28;20041;-85
2021/10/26 09:31:07;;;;;;;32.70;20.80;;;12.40;99.40;;;;;;5018232;28;20111;-85
2021/10/26 09:33:36;;;;;;;35.85;20.05;;;12.50;99.40;;;;;;5019554;28;20050;-84
2021/10/26 09:36:22;;;;;;;32.17;20.88;;;12.50;99.50;;;;;;5019800;28;20531;-84
2021/10/26 09:39:03;;;;;;;35.00;21.23;;;12.60;99.40;;;;;;5017932;28;20049;-84
2021/10/26 09:41:31;;;;;;;31.33;20.50;;;12.60;99.40;;;;;;5027283;28;20496;-84
2021/10/26 09:44:18;;;;;;;34.95;20.25;;;12.70;99.40;;;;;;5038487;28;20087;-84
2021/10/26 09:47:13;;;;;;;34.72;19.35;;;12.70;99.20;;;;;;5037640;28;20111;-83
2021/10/26 09:49:41;;;;;;;33.15;20.15;;;12.80;99.20;;;;;;5037011;28;20049;-84
2021/10/26 09:52:21;;;;;;;34.40;20.05;;;12.80;99.20;;;;;;5032311;28;20083;-84
2021/10/26 09:54:50;;;;;;;30.92;20.15;;;12.80;99.10;;;;;;5028530;28;20127;-84
2021/10/26 09:57:17;;;;;;;37.67;19.98;;;12.80;99.00;;;;;;5037544;28;20476;-84
2021/10/26 09:59:51;;;;;;;36.80;20.42;;;12.90;98.90;;;;;;5037427;28;20045;-84
2021/10/26 10:02:22;;;;;;;30.40;19.70;;;12.90;98.80;;;;;;5038211;28;20162;-85
2021/10/26 10:04:52;;;;;;;32.78;20.02;;;12.90;98.80;;;;;;5038405;28;20114;-84
2021/10/26 10:07:28;;;;;;;31.67;19.48;;;12.90;98.80;;;;;;5037257;28;20037;-84
2021/10/26 10:09:55;;;;;;;36.22;20.20;;;12.90;98.70;;;;;;5036698;28;20436;-85
2021/10/26 10:12:23;;;;;;;38.15;20.77;;;12.90;98.80;;;;;;5026159;28;20511;-85
2021/10/26 10:14:53;;;;;;;33.88;20.00;;;12.90;98.70;;;;;;5020484;28;20053;-86
2021/10/26 10:17:21;;;;;;;30.23;18.42;;;12.90;98.70;;;;;;5018227;28;20133;-88
2021/10/26 10:19:49;;;;;;;34.03;19.35;;;12.90;98.70;;;;;;5018070;28;20555;-87
2021/10/26 10:22:15;;;;;;;34.85;19.33;;;12.90;98.70;;;;;;5017699;28;20046;-86
2021/10/26 10:24:42;;;;;;;36.65;20.38;;;13.00;98.70;;;;;;5017885;28;20046;-86
2021/10/26 10:27:09;;;;;;;31.25;20.27;;;13.00;98.70;;;;;;5017624;28;20080;-87
2021/10/26 10:29:39;;;;;;;33.67;20.25;;;13.00;98.80;;;;;;5017737;28;20107;-86
2021/10/26 10:32:07;;;;;;;31.27;18.45;;;13.10;98.90;;;;;;5017161;28;20042;-86
2021/10/26 10:34:35;;;;;;;32.42;18.35;;;13.10;98.70;;;;;;5017274;28;20476;-86
2021/10/26 10:37:02;;;;;;;35.10;17.67;;;13.30;98.60;;;;;;5018306;28;20060;-88
2021/10/26 10:39:35;;;;;;;28.70;18.10;;;13.30;98.50;;;;;;5018072;28;20046;-86
2021/10/26 10:42:12;;;;;;;27.38;17.00;;;13.30;98.40;;;;;;5036593;28;20044;-87
2021/10/26 10:44:39;;;;;;;26.30;16.08;;;13.40;98.30;;;;;;5037418;28;20049;-84
2021/10/26 10:47:10;;;;;;;31.25;16.38;;;13.50;98.30;;;;;;5031765;28;20167;-84
2021/10/26 10:49:42;;;;;;;28.73;15.85;;;13.50;98.30;;;;;;5016980;28;20497;-83
2021/10/26 10:52:11;;;;;;;28.98;15.50;;;13.50;98.10;;;;;;5017464;28;20407;-83
2021/10/26 10:57:26;;;;;;;24.55;14.00;;;13.60;97.90;;;;;;5028947;28;20061;-84
2021/10/26 10:59:54;;;;;;;22.88;12.73;;;13.70;97.70;;;;;;5025156;28;20485;-83
2021/10/26 11:02:48;;;;;;;21.75;11.57;;;13.70;97.80;;;;;;5015994;28;20114;-85
2021/10/26 11:05:33;;;;;;;22.65;11.55;;;13.80;97.50;;;;;;5017245;28;20076;-84
2021/10/26 11:08:13;;;;;;;27.42;11.98;;;13.80;97.40;;;;;;5036251;28;20044;-84
2021/10/26 11:10:51;;;;;;;21.15;11.82;;;13.80;97.40;;;;;;5035978;28;20452;-83
2021/10/26 11:13:25;;;;;;;23.52;12.18;;;13.80;97.20;;;;;;5037055;28;20055;-84
2021/10/26 11:15:53;;;;;;;23.00;12.55;;;13.80;97.10;;;;;;5035740;28;20041;-84
2021/10/26 11:18:44;;;;;;;24.98;13.20;;;13.90;97.20;;;;;;5036524;28;20045;-83
2021/10/26 11:21:25;;;;;;;30.75;17.45;;;13.90;97.00;;;;;;5036201;28;20098;-82
2021/10/26 11:24:02;;;;;;;53.17;27.92;;;13.90;97.10;;;;;;5035456;28;20041;-84
2021/10/26 11:26:39;;;;;;;23.83;12.25;;;13.90;97.10;;;;;;5036352;28;20053;-83
2021/10/26 11:29:07;;;;;;;21.48;11.35;;;13.90;97.10;;;;;;5032534;28;20056;-83
2021/10/26 11:31:42;;;;;;;25.00;10.85;;;13.90;97.00;;;;;;5032583;28;20045;-83
2021/10/26 11:34:16;;;;;;;21.25;10.38;;;13.90;96.80;;;;;;5037535;28;20044;-83
2021/10/26 11:36:42;;;;;;;21.10;11.32;;;13.90;96.80;;;;;;5037786;28;20059;-84
2021/10/26 11:39:13;;;;;;;19.88;10.52;;;13.90;96.80;;;;;;5035288;28;20480;-83
2021/10/26 11:41:41;;;;;;;22.58;11.45;;;13.90;96.80;;;;;;5036132;28;20047;-84
2021/10/26 11:44:17;;;;;;;20.20;11.30;;;13.90;97.20;;;;;;5034686;28;20451;-85
2021/10/26 11:46:47;;;;;;;25.50;11.95;;;13.90;96.90;;;;;;5036116;28;20051;-85
2021/10/26 11:49:25;;;;;;;22.67;12.88;;;13.90;96.90;;;;;;5035596;28;20044;-84
2021/10/26 11:51:57;;;;;;;23.10;11.57;;;13.90;96.90;;;;;;5034924;28;20079;-83
2021/10/26 11:54:39;;;;;;;23.95;10.77;;;13.90;97.00;;;;;;5035935;28;20045;-83
2021/10/26 11:57:07;;;;;;;21.10;10.52;;;13.90;96.80;;;;;;5035611;28;20049;-83
2021/10/26 11:59:34;;;;;;;22.52;12.43;;;13.90;96.90;;;;;;5035066;28;20492;-83
2021/10/26 12:02:03;;;;;;;21.50;11.43;;;13.90;96.90;;;;;;5033904;28;20136;-83
2021/10/26 12:04:35;;;;;;;20.67;12.73;;;14.00;97.00;;;;;;5030428;28;20523;-83
2021/10/26 12:07:08;;;;;;;18.75;11.75;;;14.00;96.90;;;;;;5034457;28;20081;-83
2021/10/26 12:09:36;;;;;;;19.00;10.77;;;14.00;96.80;;;;;;5035649;28;20059;-84
2021/10/26 12:12:14;;;;;;;21.15;11.52;;;14.00;96.70;;;;;;5035048;28;20123;-84
2021/10/26 12:14:44;;;;;;;21.58;12.27;;;13.90;96.50;;;;;;5035641;28;20450;-84
2021/10/26 12:17:12;;;;;;;19.80;12.45;;;14.00;96.60;;;;;;5034992;28;20052;-84
2021/10/26 12:19:42;;;;;;;19.63;12.23;;;14.00;96.50;;;;;;5032719;28;20045;-84
2021/10/26 12:22:13;;;;;;;24.88;12.70;;;14.00;96.50;;;;;;5034796;28;20041;-84
2021/10/26 12:24:44;;;;;;;23.00;12.70;;;14.00;96.40;;;;;;5035710;28;20067;-83
2021/10/26 12:27:10;;;;;;;20.85;12.73;;;14.00;96.40;;;;;;5032687;28;20132;-84
2021/10/26 12:29:38;;;;;;;20.55;12.38;;;14.00;96.50;;;;;;5017899;28;20132;-83
2021/10/26 12:32:05;;;;;;;20.10;12.60;;;14.00;96.60;;;;;;5015786;28;20037;-84
2021/10/26 12:34:36;;;;;;;22.90;12.75;;;14.00;96.50;;;;;;5014867;28;20473;-83
2021/10/26 12:37:28;;;;;;;23.25;12.57;;;14.00;96.40;;;;;;5033180;28;20132;-83
2021/10/26 12:39:55;;;;;;;20.77;13.48;;;14.00;96.20;;;;;;5019031;28;20056;-84
2021/10/26 12:42:35;;;;;;;24.50;14.25;;;14.00;96.60;;;;;;5052651;28;20045;-83
2021/10/26 12:45:03;;;;;;;24.17;14.20;;;14.00;96.60;;;;;;5016366;28;20045;-83
2021/10/26 12:47:31;;;;;;;22.88;13.70;;;14.00;96.70;;;;;;5021276;28;20404;-83